createdAt,value
2019-05-13T00:02:30.546Z,100079.12
2019-05-13T00:05:03.906Z,100080.80
2019-05-13T00:07:36.830Z,100066.39
2019-05-13T00:10:09.299Z,100068.44
2019-05-13T00:12:41.492Z,100076.22
2019-05-13T00:15:14.308Z,100076.34
2019-05-13T00:17:45.814Z,100076.75
2019-05-13T00:20:18.499Z,100077.86
2019-05-13T00:22:50.540Z,100078.78
2019-05-13T00:25:24.180Z,100079.42
2019-05-13T00:27:56.457Z,100084.88
2019-05-13T00:30:28.165Z,100082.72
2019-05-13T00:33:00.057Z,100079.91
2019-05-13T00:35:33.942Z,100088.06
2019-05-13T00:38:05.445Z,100081.81
2019-05-13T00:40:37.245Z,100082.84
2019-05-13T00:43:09.026Z,100081.44
2019-05-13T00:45:41.071Z,100090.10
2019-05-13T00:48:14.292Z,100081.19
2019-05-13T00:50:46.124Z,100076.58
2019-05-13T00:53:17.900Z,100077.09
2019-05-13T00:55:49.840Z,100088.55
2019-05-13T00:58:23.979Z,100088.06
2019-05-13T01:00:55.714Z,100086.55
2019-05-13T01:03:28.411Z,100086.54
2019-05-13T01:06:00.419Z,100087.94
2019-05-13T01:08:33.813Z,100086.80
2019-05-13T01:11:05.607Z,100086.16
2019-05-13T01:13:37.270Z,100092.53
2019-05-13T01:16:08.982Z,100084.91
2019-05-13T01:18:43.201Z,100089.11
2019-05-13T01:21:14.891Z,100089.61
2019-05-13T01:23:46.482Z,100085.52
2019-05-13T01:26:18.232Z,100082.72
2019-05-13T01:28:50.099Z,100087.08
2019-05-13T01:31:23.837Z,100092.28
2019-05-13T01:33:55.827Z,100089.37
2019-05-13T01:36:27.902Z,100091.28
2019-05-13T01:39:00.908Z,100096.38
2019-05-13T01:41:33.573Z,100089.88
2019-05-13T01:44:05.344Z,100093.17
2019-05-13T01:46:36.932Z,100086.56
2019-05-13T01:49:09.057Z,100088.08
2019-05-13T01:51:40.688Z,100090.51
2019-05-13T01:54:14.280Z,100085.52
2019-05-13T01:56:46.150Z,100093.16
2019-05-13T01:59:18.330Z,100091.52
2019-05-13T02:01:53.921Z,100082.72
2019-05-13T02:04:25.441Z,100085.52
2019-05-13T02:06:57.073Z,100090.61
2019-05-13T02:09:29.543Z,100079.53
2019-05-13T02:12:01.302Z,100077.50
2019-05-13T02:14:34.049Z,100071.39
2019-05-13T02:17:05.967Z,100075.47
2019-05-13T02:19:37.614Z,100076.34
2019-05-13T02:22:09.373Z,100073.55
2019-05-13T02:24:41.213Z,100063.48
2019-05-13T02:27:14.196Z,100062.08
2019-05-13T02:29:45.895Z,100065.67
2019-05-13T02:32:17.955Z,100067.05
2019-05-13T02:34:53.065Z,100058.41
2019-05-13T02:37:23.449Z,100067.55
2019-05-13T02:39:55.267Z,100067.30
2019-05-13T02:42:27.095Z,100071.50
2019-05-13T02:44:59.196Z,100067.80
2019-05-13T02:47:33.046Z,100064.39
2019-05-13T02:50:07.118Z,100072.90
2019-05-13T02:52:38.982Z,100054.70
2019-05-13T02:55:12.337Z,100067.94
2019-05-13T02:57:44.303Z,100067.20
2019-05-13T03:00:16.808Z,100067.05
2019-05-13T03:02:48.581Z,100068.35
2019-05-13T03:05:21.914Z,100079.55
2019-05-13T03:07:53.691Z,100074.70
2019-05-13T03:10:25.677Z,100071.41
2019-05-13T03:12:57.533Z,100080.19
2019-05-13T03:15:32.777Z,100080.44
2019-05-13T03:18:05.487Z,100086.30
2019-05-13T03:20:37.083Z,100085.80
2019-05-13T03:23:08.981Z,100083.00
2019-05-13T03:25:42.911Z,100089.88
2019-05-13T03:28:14.418Z,100082.48
2019-05-13T03:30:46.602Z,100083.37
2019-05-13T03:33:21.910Z,100086.42
2019-05-13T03:35:55.675Z,100077.77
2019-05-13T03:38:26.476Z,100084.77
2019-05-13T03:40:59.470Z,100085.94
2019-05-13T03:43:33.239Z,100096.52
2019-05-13T03:46:04.965Z,100091.66
2019-05-13T03:48:38.416Z,100083.89
2019-05-13T03:51:13.336Z,100092.31
2019-05-13T03:53:44.699Z,100091.91
2019-05-13T03:56:17.109Z,100091.27
2019-05-13T03:58:49.209Z,100089.61
2019-05-13T04:01:22.531Z,100098.02
2019-05-13T04:03:54.230Z,100102.64
2019-05-13T04:06:26.264Z,100106.85
2019-05-13T04:09:20.043Z,100106.72
2019-05-13T04:11:33.077Z,100108.37
2019-05-13T04:14:04.877Z,100107.23
2019-05-13T04:16:36.668Z,100115.75
2019-05-13T04:19:12.094Z,100112.06
2019-05-13T04:21:43.154Z,100111.94
2019-05-13T04:24:14.995Z,100111.05
2019-05-13T04:27:03.870Z,100110.55
2019-05-13T04:29:37.767Z,100116.02
2019-05-13T04:32:12.340Z,100110.53
2019-05-13T04:34:42.749Z,100115.89
2019-05-13T04:37:14.552Z,100123.80
2019-05-13T04:39:51.576Z,100122.75
2019-05-13T04:42:23.032Z,100125.67
2019-05-13T04:44:55.165Z,100118.17
2019-05-13T04:47:26.878Z,100121.70
2019-05-13T04:50:02.558Z,100125.88
2019-05-13T04:52:33.179Z,100128.02
2019-05-13T04:55:06.059Z,100126.84
2019-05-13T04:57:38.236Z,100125.55
2019-05-13T05:00:12.820Z,100123.22
2019-05-13T05:02:51.281Z,100129.73
2019-05-13T05:05:26.145Z,100123.92
2019-05-13T05:08:18.567Z,100122.44
2019-05-13T05:11:14.783Z,100129.70
2019-05-13T05:14:08.481Z,100130.81
2019-05-13T05:17:02.905Z,100129.02
2019-05-13T05:19:55.488Z,100128.23
2019-05-13T05:22:36.376Z,100129.77
2019-05-13T05:25:22.771Z,100132.27
2019-05-13T05:28:16.016Z,100139.14
2019-05-13T05:31:11.636Z,100138.66
2019-05-13T05:33:48.634Z,100137.30
2019-05-13T05:36:56.845Z,100139.05
2019-05-13T05:39:31.388Z,100141.30
2019-05-13T05:42:02.511Z,100141.17
2019-05-13T05:44:34.248Z,100145.36
2019-05-13T05:47:06.717Z,100143.31
2019-05-13T05:49:41.066Z,100146.33
2019-05-13T05:52:13.820Z,100144.58
2019-05-13T05:54:48.429Z,100143.30
2019-05-13T05:57:22.496Z,100140.03
2019-05-13T05:59:56.397Z,100140.91
2019-05-13T06:02:32.316Z,100146.64
2019-05-13T06:05:05.272Z,100152.55
2019-05-13T06:07:38.551Z,100157.55
2019-05-13T06:10:12.203Z,100150.92
2019-05-13T06:12:44.083Z,100149.74
2019-05-13T06:15:15.611Z,100145.83
2019-05-13T06:17:47.210Z,100150.23
2019-05-13T06:20:20.971Z,100148.54
2019-05-13T06:22:52.546Z,100149.77
2019-05-13T06:25:24.048Z,100155.26
2019-05-13T06:27:56.078Z,100154.25
2019-05-13T06:30:27.793Z,100157.91
2019-05-13T06:33:01.619Z,100159.95
2019-05-13T06:35:33.420Z,100168.64
2019-05-13T06:38:05.435Z,100172.83
2019-05-13T06:40:37.485Z,100176.52
2019-05-13T06:43:11.864Z,100178.47
2019-05-13T06:45:42.895Z,100177.83
2019-05-13T06:48:14.600Z,100174.14
2019-05-13T06:50:46.150Z,100174.55
2019-05-13T06:53:18.726Z,100170.70
2019-05-13T06:55:52.339Z,100171.20
2019-05-13T06:58:24.214Z,100169.16
2019-05-13T07:00:58.978Z,100168.19
2019-05-13T07:03:32.259Z,100168.54
2019-05-13T07:06:04.099Z,100164.77
2019-05-13T07:08:36.333Z,100160.06
2019-05-13T07:11:20.286Z,100160.92
2019-05-13T07:13:42.320Z,100159.20
2019-05-13T07:16:13.973Z,100155.39
2019-05-13T07:18:45.930Z,100159.73
2019-05-13T07:21:17.731Z,100166.78
2019-05-13T07:23:54.719Z,100167.39
2019-05-13T07:26:24.370Z,100174.67
2019-05-13T07:28:56.280Z,100177.13
2019-05-13T07:31:28.054Z,100175.63
2019-05-13T07:34:02.195Z,100175.95
2019-05-13T07:36:34.760Z,100169.03
2019-05-13T07:39:08.967Z,100170.41
2019-05-13T07:41:43.111Z,100168.80
2019-05-13T07:44:13.844Z,100176.08
2019-05-13T07:46:45.999Z,100172.42
2019-05-13T07:49:18.695Z,100175.12
2019-05-13T07:51:52.095Z,100174.85
2019-05-13T07:54:23.945Z,100175.08
2019-05-13T07:56:55.509Z,100180.20
2019-05-13T07:59:27.386Z,100179.14
2019-05-13T08:01:59.309Z,100174.48
2019-05-13T08:04:33.422Z,100174.61
2019-05-13T08:07:05.440Z,100170.98
2019-05-13T08:09:37.689Z,100171.55
2019-05-13T08:12:13.455Z,100172.66
2019-05-13T08:14:43.610Z,100164.33
2019-05-13T08:17:17.967Z,100167.94
2019-05-13T08:19:52.064Z,100159.16
2019-05-13T08:22:23.526Z,100168.16
2019-05-13T08:24:55.391Z,100167.23
2019-05-13T08:27:34.461Z,100168.17
2019-05-13T08:30:01.647Z,100164.31
2019-05-13T08:32:34.543Z,100161.70
2019-05-13T08:35:09.225Z,100156.36
2019-05-13T08:37:41.560Z,100152.45
2019-05-13T08:40:14.150Z,100158.52
2019-05-13T08:42:45.773Z,100156.33
2019-05-13T08:45:17.976Z,100157.06
2019-05-13T08:47:51.214Z,100158.81
2019-05-13T08:50:24.335Z,100162.58
2019-05-13T08:52:56.215Z,100154.63
2019-05-13T08:55:28.372Z,100163.76
2019-05-13T08:58:01.886Z,100156.11
2019-05-13T09:00:53.893Z,100161.86
2019-05-13T09:03:25.739Z,100157.16
2019-05-13T09:05:57.531Z,100158.42
2019-05-13T09:08:31.844Z,100159.49
2019-05-13T09:11:03.185Z,100156.80
2019-05-13T09:13:35.138Z,100158.31
2019-05-13T09:16:07.187Z,100154.37
2019-05-13T09:18:38.751Z,100162.00
2019-05-13T09:21:11.684Z,100160.55
2019-05-13T09:23:43.685Z,100153.73
2019-05-13T09:26:15.564Z,100157.70
2019-05-13T09:28:47.309Z,100158.01
2019-05-13T09:31:21.836Z,100160.69
2019-05-13T09:33:52.460Z,100165.05
2019-05-13T09:36:24.324Z,100160.42
2019-05-13T09:38:56.095Z,100166.86
2019-05-13T09:41:28.118Z,100162.92
2019-05-13T09:44:01.993Z,100163.83
2019-05-13T09:46:34.521Z,100160.80
2019-05-13T09:49:15.746Z,100164.29
2019-05-13T09:51:41.718Z,100162.48
2019-05-13T09:54:14.418Z,100156.77
2019-05-13T09:56:45.969Z,100159.09
2019-05-13T09:59:17.653Z,100160.77
2019-05-13T10:01:51.691Z,100160.91
2019-05-13T10:04:22.567Z,100159.78
2019-05-13T10:06:54.131Z,100155.28
2019-05-13T10:09:26.197Z,100158.77
2019-05-13T10:11:57.935Z,100152.56
2019-05-13T10:14:32.358Z,100154.43
2019-05-13T10:17:05.991Z,100154.12
2019-05-13T10:19:36.606Z,100162.42
2019-05-13T10:22:08.437Z,100156.95
2019-05-13T10:24:42.365Z,100154.03
2019-05-13T10:27:18.446Z,100156.23
2019-05-13T10:29:47.297Z,100159.27
2019-05-13T10:32:21.736Z,100156.03
2019-05-13T10:34:53.987Z,100154.63
2019-05-13T10:37:25.435Z,100151.58
2019-05-13T10:39:57.016Z,100160.20
2019-05-13T10:42:28.955Z,100148.64
2019-05-13T10:45:02.579Z,100145.36
2019-05-13T10:47:34.120Z,100139.94
2019-05-13T10:50:07.059Z,100143.59
2019-05-13T10:52:38.569Z,100138.04
2019-05-13T10:55:12.813Z,100140.55
2019-05-13T10:57:43.488Z,100134.19
2019-05-13T11:00:15.763Z,100130.91
2019-05-13T11:02:47.339Z,100123.34
2019-05-13T11:05:18.860Z,100122.56
2019-05-13T11:07:51.760Z,100116.95
2019-05-13T11:10:26.589Z,100122.23
2019-05-13T11:12:58.260Z,100117.98
2019-05-13T11:15:32.828Z,100111.08
2019-05-13T11:18:03.198Z,100111.89
2019-05-13T11:20:35.308Z,100116.16
2019-05-13T11:23:06.898Z,100111.22
2019-05-13T11:25:41.190Z,100111.79
2019-05-13T11:28:12.366Z,100114.77
2019-05-13T11:30:44.269Z,100107.93
2019-05-13T11:33:16.289Z,100104.16
2019-05-13T11:35:47.895Z,100100.45
2019-05-13T11:38:21.654Z,100107.55
2019-05-13T11:40:52.733Z,100096.80
2019-05-13T11:43:28.299Z,100103.64
2019-05-13T11:45:58.813Z,100101.23
2019-05-13T11:48:32.269Z,100098.13
2019-05-13T11:51:04.314Z,100094.61
2019-05-13T11:53:37.729Z,100084.91
2019-05-13T11:56:11.534Z,100090.23
2019-05-13T11:58:43.373Z,100076.25
2019-05-13T12:01:14.853Z,100085.33
2019-05-13T12:03:47.513Z,100082.42
2019-05-13T12:06:22.916Z,100084.98
2019-05-13T12:08:55.149Z,100079.97
2019-05-13T12:11:25.544Z,100086.56
2019-05-13T12:13:58.735Z,100086.48
2019-05-13T12:16:34.762Z,100080.42
2019-05-13T12:19:03.932Z,100074.75
2019-05-13T12:21:42.155Z,100074.75
2019-05-13T12:24:10.945Z,100074.22
2019-05-13T12:26:43.630Z,100071.46
2019-05-13T12:29:18.990Z,100074.87
2019-05-13T12:31:48.489Z,100079.31
2019-05-13T12:34:22.096Z,100079.70
2019-05-13T12:36:53.499Z,100073.84
2019-05-13T12:39:25.033Z,100071.27
2019-05-13T12:41:56.672Z,100074.39
2019-05-13T12:44:31.594Z,100079.21
2019-05-13T12:47:03.609Z,100076.83
2019-05-13T12:49:36.708Z,100076.17
2019-05-13T12:52:08.537Z,100069.23
2019-05-13T12:54:43.673Z,100065.23
2019-05-13T12:57:16.120Z,100064.88
2019-05-13T12:59:47.067Z,100067.73
2019-05-13T13:02:18.922Z,100065.59
2019-05-13T13:05:09.202Z,100059.90
2019-05-13T13:07:24.104Z,100053.80
2019-05-13T13:09:56.164Z,100055.66
2019-05-13T13:12:34.650Z,100050.76
2019-05-13T13:15:20.308Z,100047.80
2019-05-13T13:17:35.006Z,100041.08
2019-05-13T13:20:09.646Z,100038.11
2019-05-13T13:22:41.282Z,100039.36
2019-05-13T13:25:14.186Z,100048.23
2019-05-13T13:28:09.079Z,100048.01
2019-05-13T13:30:19.215Z,100043.98
2019-05-13T13:32:54.944Z,100035.93
2019-05-13T13:35:24.225Z,100036.47
2019-05-13T13:37:56.021Z,100041.00
2019-05-13T13:40:29.685Z,100041.77
2019-05-13T13:43:05.222Z,100042.87
2019-05-13T13:46:05.770Z,100041.09
2019-05-13T13:48:07.967Z,100036.70
2019-05-13T13:50:43.934Z,100038.78
2019-05-13T13:53:13.899Z,100034.68
2019-05-13T13:55:46.041Z,100031.55
2019-05-13T13:58:17.777Z,100028.19
2019-05-13T14:01:01.878Z,100027.11
2019-05-13T14:03:23.968Z,100028.82
2019-05-13T14:05:55.817Z,100028.27
2019-05-13T14:08:27.589Z,100025.19
2019-05-13T14:11:01.947Z,100029.98
2019-05-13T14:13:33.141Z,100028.23
2019-05-13T14:16:20.600Z,100032.58
2019-05-13T14:18:41.703Z,100031.38
2019-05-13T14:21:12.186Z,100026.70
2019-05-13T14:23:43.962Z,100022.48
2019-05-13T14:26:15.962Z,100025.54
2019-05-13T14:28:47.789Z,100027.69
2019-05-13T14:31:21.395Z,100027.39
2019-05-13T14:33:54.139Z,100033.13
2019-05-13T14:36:25.737Z,100032.92
2019-05-13T14:38:57.397Z,100036.84
2019-05-13T14:41:31.134Z,100036.82
2019-05-13T14:44:03.746Z,100037.36
2019-05-13T14:46:46.795Z,100032.66
2019-05-13T14:49:09.034Z,100034.28
2019-05-13T14:51:41.509Z,100037.52
2019-05-13T14:54:13.122Z,100032.19
2019-05-13T14:56:44.906Z,100032.48
2019-05-13T14:59:16.631Z,100032.92
2019-05-13T15:01:48.521Z,100025.86
2019-05-13T15:04:22.259Z,100025.00
2019-05-13T15:06:53.460Z,100021.30
2019-05-13T15:09:25.093Z,100021.50
2019-05-13T15:11:57.123Z,100017.99
2019-05-13T15:14:29.014Z,100014.43
2019-05-13T15:17:06.250Z,100010.07
2019-05-13T15:19:33.883Z,100003.00
2019-05-13T15:22:06.030Z,100003.48
2019-05-13T15:24:37.877Z,100000.77
2019-05-13T15:27:09.460Z,100007.60
2019-05-13T15:29:41.752Z,100007.63
2019-05-13T15:32:13.620Z,100010.45
2019-05-13T15:34:45.553Z,100011.55
2019-05-13T15:37:17.706Z,100005.69
2019-05-13T15:39:51.702Z,100011.02
2019-05-13T15:42:22.879Z,100011.13
2019-05-13T15:44:54.364Z,100018.75
2019-05-13T15:47:27.014Z,100017.45
2019-05-13T15:50:02.191Z,100019.63
2019-05-13T15:52:32.465Z,100030.61
2019-05-13T15:55:05.256Z,100022.48
2019-05-13T15:57:36.779Z,100022.72
2019-05-13T16:00:08.607Z,100023.45
2019-05-13T16:02:42.192Z,100022.25
2019-05-13T16:05:13.835Z,100016.92
2019-05-13T16:07:45.389Z,100019.75
2019-05-13T16:10:17.379Z,100021.28
2019-05-13T16:12:51.327Z,100015.52
2019-05-13T16:15:22.769Z,100016.28
2019-05-13T16:17:54.629Z,100012.13
2019-05-13T16:20:26.283Z,100014.75
2019-05-13T16:22:58.042Z,100010.52
2019-05-13T16:25:31.809Z,100003.21
2019-05-13T16:28:03.439Z,100005.95
2019-05-13T16:30:35.167Z,100000.44
2019-05-13T16:33:06.933Z,100004.11
2019-05-13T16:35:38.671Z,100000.44
2019-05-13T16:38:11.259Z,99999.05
2019-05-13T16:40:42.969Z,99993.06
2019-05-13T16:43:14.884Z,100000.80
2019-05-13T16:45:46.472Z,99996.03
2019-05-13T16:48:18.082Z,100003.20
2019-05-13T16:50:50.059Z,99998.61
2019-05-13T16:53:25.655Z,100000.17
2019-05-13T16:55:55.411Z,99995.27
2019-05-13T16:58:27.258Z,100003.23
2019-05-13T17:00:58.737Z,100006.70
2019-05-13T17:03:31.914Z,100002.13
2019-05-13T17:06:04.183Z,100005.50
2019-05-13T17:08:35.826Z,100000.60
2019-05-13T17:11:07.434Z,100005.70
2019-05-13T17:13:39.355Z,100002.66
2019-05-13T17:16:11.106Z,100007.66
2019-05-13T17:18:42.986Z,100004.62
2019-05-13T17:21:14.731Z,100010.22
2019-05-13T17:23:46.673Z,100011.16
2019-05-13T17:26:18.350Z,100010.08
2019-05-13T17:28:51.900Z,100025.58
2019-05-13T17:31:23.549Z,100022.29
2019-05-13T17:33:55.136Z,100031.19
2019-05-13T17:36:26.894Z,100036.77
2019-05-13T17:38:58.560Z,100038.57
2019-05-13T17:41:32.147Z,100037.90
2019-05-13T17:44:03.515Z,100031.66
2019-05-13T17:46:35.374Z,100044.78
2019-05-13T17:49:07.040Z,100046.92
2019-05-13T17:51:38.776Z,100039.45
2019-05-13T17:54:11.977Z,100036.19
2019-05-13T17:56:43.894Z,100044.64
2019-05-13T17:59:17.377Z,100042.81
2019-05-13T18:01:51.702Z,100041.59
2019-05-13T18:04:23.416Z,100037.59
2019-05-13T18:06:58.517Z,100035.97
2019-05-13T18:09:28.361Z,100035.75
2019-05-13T18:12:02.164Z,100035.81
2019-05-13T18:14:33.441Z,100027.09
2019-05-13T18:17:05.280Z,100021.47
2019-05-13T18:19:36.804Z,100023.23
2019-05-13T18:22:08.579Z,100015.10
2019-05-13T18:24:40.490Z,100016.28
2019-05-13T18:27:12.512Z,100015.88
2019-05-13T18:29:44.309Z,100017.33
2019-05-13T18:32:16.099Z,100020.55
2019-05-13T18:34:47.939Z,100016.64
2019-05-13T18:37:19.314Z,100010.47
2019-05-13T18:39:52.014Z,100006.97
2019-05-13T18:42:23.746Z,100001.97
2019-05-13T18:44:55.578Z,99998.94
2019-05-13T18:47:27.460Z,99999.77
2019-05-13T18:50:02.001Z,99999.67
2019-05-13T18:52:32.838Z,99993.91
2019-05-13T18:55:05.729Z,99994.98
2019-05-13T18:57:37.205Z,99995.55
2019-05-13T19:00:11.639Z,99994.41
2019-05-13T19:02:43.266Z,99992.81
2019-05-13T19:05:15.167Z,99998.48
2019-05-13T19:07:46.537Z,99996.38
2019-05-13T19:10:18.461Z,100000.36
2019-05-13T19:12:49.978Z,99991.28
2019-05-13T19:15:22.123Z,99992.27
2019-05-13T19:17:53.622Z,99987.21
2019-05-13T19:20:25.452Z,99987.98
2019-05-13T19:22:56.891Z,99989.32
2019-05-13T19:25:28.386Z,99987.52
2019-05-13T19:28:02.245Z,99981.42
2019-05-13T19:30:33.695Z,99978.61
2019-05-13T19:33:05.470Z,99976.67
2019-05-13T19:35:36.932Z,99969.72
2019-05-13T19:38:08.754Z,99972.80
2019-05-13T19:40:41.897Z,99971.39
2019-05-13T19:43:13.803Z,99971.76
2019-05-13T19:45:45.587Z,99964.13
2019-05-13T19:48:16.989Z,99962.27
2019-05-13T19:50:48.915Z,99959.32
2019-05-13T19:53:20.534Z,99967.91
2019-05-13T19:55:52.292Z,99961.43
2019-05-13T19:58:24.042Z,99964.60
2019-05-13T20:00:55.826Z,99963.20
2019-05-13T20:03:27.662Z,99962.94
2019-05-13T20:05:59.420Z,99965.23
2019-05-13T20:08:32.111Z,99970.86
2019-05-13T20:11:04.118Z,99968.69
2019-05-13T20:13:35.962Z,99964.47
2019-05-13T20:16:07.889Z,99968.31
2019-05-13T20:18:41.445Z,99966.05
2019-05-13T20:21:13.578Z,99962.59
2019-05-13T20:23:45.212Z,99963.10
2019-05-13T20:26:17.266Z,99960.59
2019-05-13T20:28:48.718Z,99966.74
2019-05-13T20:31:21.693Z,99964.20
2019-05-13T20:33:53.273Z,99962.03
2019-05-13T20:36:25.139Z,99965.38
2019-05-13T20:38:57.109Z,99971.63
2019-05-13T20:41:28.753Z,99963.09
2019-05-13T20:44:01.448Z,99961.95
2019-05-13T20:46:33.193Z,99957.27
2019-05-13T20:49:04.934Z,99950.02
2019-05-13T20:51:36.688Z,99949.88
2019-05-13T20:54:08.164Z,99951.05
2019-05-13T20:56:42.010Z,99951.81
2019-05-13T20:59:12.884Z,99942.69
2019-05-13T21:01:44.762Z,99944.73
2019-05-13T21:04:16.635Z,99942.95
2019-05-13T21:06:48.377Z,99938.40
2019-05-13T21:09:20.222Z,99943.75
2019-05-13T21:11:51.949Z,99939.94
2019-05-13T21:14:23.662Z,99931.30
2019-05-13T21:16:55.181Z,99931.17
2019-05-13T21:19:26.838Z,99932.09
2019-05-13T21:21:58.771Z,99923.67
2019-05-13T21:24:31.949Z,99920.02
2019-05-13T21:27:03.565Z,99920.26
2019-05-13T21:29:35.300Z,99926.11
2019-05-13T21:32:06.877Z,99922.06
2019-05-13T21:34:38.662Z,99927.80
2019-05-13T21:37:12.111Z,99926.56
2019-05-13T21:39:44.057Z,99929.62
2019-05-13T21:42:15.727Z,99923.27
2019-05-13T21:44:47.541Z,99917.66
2019-05-13T21:47:21.857Z,99919.56
2019-05-13T21:49:52.739Z,99929.28
2019-05-13T21:52:24.466Z,99919.70
2019-05-13T21:54:56.356Z,99916.77
2019-05-13T21:57:28.432Z,99919.46
2019-05-13T22:00:02.095Z,99916.81
2019-05-13T22:02:35.146Z,99911.70
2019-05-13T22:05:07.579Z,99911.75
2019-05-13T22:07:39.284Z,99909.10
2019-05-13T22:10:11.713Z,99911.81
2019-05-13T22:12:43.408Z,99910.44
2019-05-13T22:15:15.499Z,99913.28
2019-05-13T22:17:47.429Z,99909.24
2019-05-13T22:20:21.178Z,99909.00
2019-05-13T22:22:52.983Z,99902.63
2019-05-13T22:25:24.818Z,99898.84
2019-05-13T22:27:57.020Z,99898.33
2019-05-13T22:30:28.968Z,99899.49
2019-05-13T22:33:01.810Z,99890.31
2019-05-13T22:35:34.548Z,99890.20
2019-05-13T22:38:06.288Z,99888.31
2019-05-13T22:40:38.149Z,99885.00
2019-05-13T22:43:12.161Z,99884.89
2019-05-13T22:45:43.485Z,99891.77
2019-05-13T22:48:15.497Z,99887.72
2019-05-13T22:50:47.529Z,99887.81
2019-05-13T22:53:21.094Z,99890.27
2019-05-13T22:55:52.801Z,99888.73
2019-05-13T22:58:24.873Z,99882.25
2019-05-13T23:00:56.622Z,99879.70
2019-05-13T23:03:28.576Z,99878.69
2019-05-13T23:06:01.604Z,99875.53
2019-05-13T23:08:33.853Z,99875.67
2019-05-13T23:11:05.791Z,99873.89
2019-05-13T23:13:37.327Z,99872.34
2019-05-13T23:16:11.407Z,99869.44
2019-05-13T23:18:42.965Z,99871.47
2019-05-13T23:21:15.011Z,99870.21
2019-05-13T23:23:47.177Z,99872.63
2019-05-13T23:26:20.940Z,99869.72
2019-05-13T23:28:52.372Z,99860.69
2019-05-13T23:31:24.132Z,99859.28
2019-05-13T23:33:56.119Z,99865.52
2019-05-13T23:36:28.098Z,99868.45
2019-05-13T23:39:01.037Z,99869.23
2019-05-13T23:41:34.025Z,99864.89
2019-05-13T23:44:05.705Z,99869.61
2019-05-13T23:46:37.456Z,99863.23
2019-05-13T23:49:09.326Z,99861.21
2019-05-13T23:51:41.526Z,99858.91
2019-05-13T23:54:13.282Z,99864.64
2019-05-13T23:56:45.286Z,99862.33
2019-05-13T23:59:17.464Z,99868.45
